Time;durP1;ratioP1;P1;durP2;ratioP2;P2;SDS_P1;SDS_P2;PMS_P1;PMS_P2;Temp;Humidity;BMP_temperature;BMP_pressure;BME280_temperature;BME280_humidity;BME280_pressure;Samples;Min_cycle;Max_cycle;Signal;HPM_P1;HPM_P2
2022/06/16 00:00:06;;;;;;;4.90;3.43;;;20.60;99.90;;;;;;5077381;28;20416;-86
2022/06/16 00:02:44;;;;;;;3.93;3.10;;;20.60;99.90;;;;;;5082240;28;20413;-87
2022/06/16 00:05:11;;;;;;;8.17;3.40;;;20.60;99.90;;;;;;5070731;28;20471;-80
2022/06/16 00:07:42;;;;;;;3.57;3.27;;;20.50;99.90;;;;;;5072320;28;20450;-79
2022/06/16 00:10:09;;;;;;;5.17;3.60;;;20.50;99.90;;;;;;5068767;28;20465;-79
2022/06/16 00:12:35;;;;;;;7.77;3.90;;;20.50;99.90;;;;;;5072453;28;20956;-78
2022/06/16 00:15:02;;;;;;;4.77;3.50;;;20.50;99.90;;;;;;5072074;28;20507;-78
2022/06/16 00:17:27;;;;;;;6.30;3.37;;;20.50;99.90;;;;;;5071908;28;20433;-79
2022/06/16 00:19:53;;;;;;;7.80;4.03;;;20.50;99.90;;;;;;5070850;28;20445;-86
2022/06/16 00:22:24;;;;;;;5.10;3.53;;;20.50;99.90;;;;;;5072493;28;20270;-86
2022/06/16 00:24:50;;;;;;;5.20;3.63;;;20.50;99.90;;;;;;5076289;28;20273;-87
2022/06/16 00:27:15;;;;;;;6.63;3.70;;;20.50;99.90;;;;;;5072839;28;20512;-86
2022/06/16 00:29:41;;;;;;;9.10;3.27;;;20.40;99.90;;;;;;5071638;28;20191;-86
2022/06/16 00:32:07;;;;;;;11.00;3.03;;;20.40;99.90;;;;;;5072002;28;20190;-87
2022/06/16 00:34:32;;;;;;;5.00;2.90;;;20.40;99.90;;;;;;5072045;28;20719;-87
2022/06/16 00:36:58;;;;;;;7.53;3.37;;;20.40;99.90;;;;;;5072244;28;20641;-86
2022/06/16 00:39:23;;;;;;;5.60;3.50;;;20.30;99.90;;;;;;5071641;28;20211;-86
2022/06/16 00:41:49;;;;;;;11.10;4.30;;;20.30;99.90;;;;;;5071688;28;20267;-86
2022/06/16 00:44:23;;;;;;;5.30;3.53;;;20.30;99.90;;;;;;5073135;28;20175;-86
2022/06/16 00:46:49;;;;;;;4.40;3.50;;;20.30;99.90;;;;;;5070553;28;20171;-86
2022/06/16 00:49:15;;;;;;;6.80;3.67;;;20.20;99.90;;;;;;5076291;28;20422;-86
2022/06/16 00:51:47;;;;;;;8.00;3.97;;;20.20;99.90;;;;;;5075504;28;20525;-87
2022/06/16 00:54:24;;;;;;;7.63;3.80;;;20.20;99.90;;;;;;5075198;28;20494;-86
2022/06/16 00:56:52;;;;;;;6.73;3.33;;;20.10;99.90;;;;;;5075524;28;20768;-87
2022/06/16 00:59:19;;;;;;;5.23;3.20;;;20.10;99.90;;;;;;5076074;28;20463;-86
2022/06/16 01:01:46;;;;;;;8.50;3.90;;;20.10;99.90;;;;;;5075050;28;20425;-86
2022/06/16 01:06:58;;;;;;;8.07;3.53;;;20.00;99.90;;;;;;5076163;28;20968;-78
2022/06/16 01:09:29;;;;;;;6.17;3.60;;;20.00;99.90;;;;;;5088859;28;20749;-79
2022/06/16 01:15:19;;;;;;;6.70;3.50;;;19.90;99.90;;;;;;5074833;28;20498;-79
2022/06/16 01:18:11;;;;;;;5.30;3.20;;;19.90;99.90;;;;;;5072277;28;20421;-79
2022/06/16 01:20:57;;;;;;;7.33;3.40;;;19.80;99.90;;;;;;5075055;28;20526;-86
2022/06/16 01:23:39;;;;;;;8.40;3.77;;;19.80;99.90;;;;;;5065790;28;20420;-87
2022/06/16 01:26:37;;;;;;;5.67;3.93;;;19.70;99.90;;;;;;5075280;28;20431;-86
2022/06/16 01:29:33;;;;;;;6.80;3.33;;;19.70;99.90;;;;;;5075556;28;20786;-87
2022/06/16 01:32:08;;;;;;;5.77;3.70;;;19.60;99.90;;;;;;5075285;28;20915;-87
2022/06/16 01:34:56;;;;;;;5.13;3.50;;;19.60;99.90;;;;;;5075813;28;20954;-86
2022/06/16 01:37:29;;;;;;;8.17;3.40;;;19.60;99.90;;;;;;5075168;28;20421;-79
2022/06/16 01:40:02;;;;;;;4.27;3.50;;;19.60;99.90;;;;;;5074586;28;20417;-78
2022/06/16 01:42:36;;;;;;;4.30;3.70;;;19.50;99.90;;;;;;5068267;28;20391;-80
2022/06/16 01:45:23;;;;;;;6.13;3.40;;;19.50;99.90;;;;;;5067354;28;20924;-80
2022/06/16 01:47:50;;;;;;;5.43;3.70;;;19.50;99.90;;;;;;5063794;28;20457;-79
2022/06/16 01:50:22;;;;;;;8.60;3.80;;;19.40;99.90;;;;;;5074083;28;20494;-79
2022/06/16 01:52:55;;;;;;;4.07;3.37;;;19.40;99.90;;;;;;5075067;28;20420;-79
2022/06/16 01:55:35;;;;;;;8.60;3.70;;;19.40;99.90;;;;;;5072858;28;20460;-79
2022/06/16 01:58:12;;;;;;;7.30;3.53;;;19.30;99.90;;;;;;5073801;28;20903;-79
2022/06/16 02:00:41;;;;;;;7.53;3.20;;;19.30;99.90;;;;;;5062873;28;20428;-79
2022/06/16 02:03:19;;;;;;;7.70;3.80;;;19.20;99.90;;;;;;5074225;28;20441;-79
2022/06/16 02:06:10;;;;;;;5.37;3.43;;;19.20;99.90;;;;;;5065000;28;20424;-86
2022/06/16 02:08:40;;;;;;;4.53;3.53;;;19.10;99.90;;;;;;5074056;28;20856;-80
2022/06/16 02:11:18;;;;;;;6.30;3.80;;;19.10;99.90;;;;;;5073951;28;20424;-79
2022/06/16 02:13:50;;;;;;;5.63;3.87;;;19.00;99.90;;;;;;5071010;28;20407;-79
2022/06/16 02:16:23;;;;;;;8.77;3.60;;;19.00;99.90;;;;;;5073643;28;20509;-79
2022/06/16 02:18:51;;;;;;;6.80;3.50;;;18.90;99.90;;;;;;5073739;28;20440;-79
2022/06/16 02:21:23;;;;;;;6.63;3.67;;;18.80;99.90;;;;;;5074175;28;20477;-86
2022/06/16 02:23:49;;;;;;;6.07;3.80;;;18.80;99.90;;;;;;5073758;28;20831;-87
2022/06/16 02:26:15;;;;;;;4.87;3.90;;;18.80;99.90;;;;;;5072915;28;20499;-86
2022/06/16 02:28:45;;;;;;;4.57;3.67;;;18.70;99.90;;;;;;5073648;28;20451;-87
2022/06/16 02:31:35;;;;;;;7.37;3.93;;;18.70;99.90;;;;;;5074152;28;20197;-86
2022/06/16 02:34:25;;;;;;;5.73;3.53;;;18.70;99.90;;;;;;5073489;28;20442;-87
2022/06/16 02:37:09;;;;;;;8.40;4.30;;;18.60;99.90;;;;;;5074524;28;20519;-87
2022/06/16 02:40:06;;;;;;;6.60;3.90;;;18.60;99.90;;;;;;5071490;28;20416;-87
2022/06/16 02:42:57;;;;;;;13.60;3.80;;;18.60;99.90;;;;;;5032305;28;20521;-87
2022/06/16 02:45:26;;;;;;;5.13;3.70;;;18.60;99.90;;;;;;5033635;28;20509;-87
2022/06/16 02:48:10;;;;;;;5.07;3.17;;;18.60;99.90;;;;;;5025939;28;20453;-87
2022/06/16 02:51:06;;;;;;;8.93;3.97;;;18.60;99.90;;;;;;5028309;28;20428;-86
2022/06/16 02:54:10;;;;;;;4.23;3.20;;;18.60;99.90;;;;;;5015986;28;20528;-87
2022/06/16 02:57:01;;;;;;;7.73;3.40;;;18.60;99.90;;;;;;5019659;28;20497;-87
2022/06/16 02:59:38;;;;;;;11.77;3.73;;;18.60;99.90;;;;;;5016900;28;20397;-86
2022/06/16 03:02:16;;;;;;;6.53;3.80;;;18.60;99.90;;;;;;5022165;28;20422;-87
2022/06/16 03:04:45;;;;;;;4.70;3.70;;;18.60;99.90;;;;;;5032143;28;20426;-87
2022/06/16 03:07:12;;;;;;;4.43;3.60;;;18.60;99.90;;;;;;5011968;28;20922;-80
2022/06/16 03:09:38;;;;;;;7.53;3.63;;;18.60;99.90;;;;;;5031914;28;20461;-79
2022/06/16 03:12:05;;;;;;;7.03;3.60;;;18.60;99.90;;;;;;5030745;28;20844;-79
2022/06/16 03:14:31;;;;;;;7.47;3.57;;;18.60;99.90;;;;;;5031743;28;20431;-79
2022/06/16 03:16:57;;;;;;;4.53;3.33;;;18.60;99.90;;;;;;5042280;28;20456;-79
2022/06/16 03:19:23;;;;;;;3.70;3.33;;;18.60;99.90;;;;;;5048463;28;20209;-78
2022/06/16 03:21:49;;;;;;;5.60;3.80;;;18.60;99.90;;;;;;5072666;28;20432;-87
2022/06/16 03:24:15;;;;;;;9.50;3.80;;;18.60;99.90;;;;;;5060691;28;20413;-87
2022/06/16 03:26:41;;;;;;;11.07;3.57;;;18.60;99.90;;;;;;5073043;28;20918;-86
2022/06/16 03:29:07;;;;;;;6.57;3.40;;;18.70;99.90;;;;;;5073632;28;20512;-87
2022/06/16 03:31:33;;;;;;;5.23;3.27;;;18.70;99.90;;;;;;5073293;28;20177;-87
2022/06/16 03:34:00;;;;;;;6.87;3.60;;;18.70;99.90;;;;;;5073623;28;20921;-86
2022/06/16 03:36:26;;;;;;;11.40;4.10;;;18.80;99.90;;;;;;5073164;28;20194;-87
2022/06/16 03:38:52;;;;;;;4.70;3.60;;;18.80;99.90;;;;;;5072699;28;20407;-86
2022/06/16 03:41:17;;;;;;;6.37;3.60;;;18.90;99.90;;;;;;5072262;28;20462;-86
2022/06/16 03:43:43;;;;;;;3.53;3.20;;;19.00;99.90;;;;;;5072202;28;20176;-86
2022/06/16 03:46:14;;;;;;;7.77;3.47;;;19.00;99.90;;;;;;5072540;28;20213;-87
2022/06/16 03:48:40;;;;;;;3.33;2.90;;;19.10;99.90;;;;;;5072366;28;20602;-87
2022/06/16 03:51:07;;;;;;;6.47;3.10;;;19.10;99.90;;;;;;5073841;28;20445;-87
2022/06/16 03:53:33;;;;;;;4.17;3.40;;;19.20;99.90;;;;;;5071664;28;20184;-79
2022/06/16 03:55:58;;;;;;;5.37;3.20;;;19.30;99.90;;;;;;5072583;28;20453;-79
2022/06/16 03:58:24;;;;;;;3.30;3.00;;;19.40;99.90;;;;;;5072424;28;20179;-78
2022/06/16 04:00:50;;;;;;;5.63;3.23;;;19.50;99.90;;;;;;5072414;28;20181;-79
2022/06/16 04:06:01;;;;;;;7.37;3.50;;;19.70;99.90;;;;;;5072866;28;20419;-79
2022/06/16 04:08:27;;;;;;;4.70;3.00;;;19.80;99.90;;;;;;5072328;28;20425;-87
2022/06/16 04:10:53;;;;;;;7.00;3.10;;;19.80;99.90;;;;;;5073189;28;20532;-87
2022/06/16 04:13:19;;;;;;;5.77;3.00;;;19.90;99.90;;;;;;5073440;28;20443;-86
2022/06/16 04:15:44;;;;;;;3.27;2.97;;;19.90;99.90;;;;;;5071860;28;21019;-86
2022/06/16 04:18:10;;;;;;;5.50;3.07;;;19.90;99.90;;;;;;5071427;28;20174;-86
2022/06/16 04:20:36;;;;;;;6.20;3.00;;;20.00;99.90;;;;;;5073914;28;20200;-87
2022/06/16 04:23:02;;;;;;;7.40;3.53;;;20.00;99.90;;;;;;5075983;28;20412;-87
2022/06/16 04:25:31;;;;;;;8.20;3.40;;;20.00;99.90;;;;;;5076494;28;20473;-86
2022/06/16 04:28:03;;;;;;;5.27;3.17;;;20.10;99.90;;;;;;5075795;28;20214;-86
2022/06/16 04:30:31;;;;;;;9.13;3.00;;;20.10;99.90;;;;;;5075601;28;20428;-86
2022/06/16 04:32:58;;;;;;;4.77;3.20;;;20.20;99.90;;;;;;5075885;28;20810;-87
2022/06/16 04:35:28;;;;;;;12.50;3.30;;;20.30;99.90;;;;;;5076725;28;20456;-87
2022/06/16 04:37:54;;;;;;;5.00;3.07;;;20.30;99.90;;;;;;5071500;28;20968;-86
2022/06/16 04:40:20;;;;;;;7.77;3.43;;;20.40;99.90;;;;;;5075195;28;20424;-86
2022/06/16 04:42:45;;;;;;;8.87;2.93;;;20.40;99.90;;;;;;5075630;28;20421;-86
2022/06/16 04:45:11;;;;;;;7.57;3.33;;;20.40;99.90;;;;;;5075149;28;20399;-86
2022/06/16 04:47:38;;;;;;;8.40;3.20;;;20.40;99.90;;;;;;5075211;28;20612;-87
2022/06/16 04:50:05;;;;;;;4.53;3.07;;;20.40;99.90;;;;;;5074877;28;20521;-86
2022/06/16 04:52:31;;;;;;;7.20;3.20;;;20.40;99.90;;;;;;5075143;28;20421;-86
2022/06/16 04:54:57;;;;;;;4.17;3.30;;;20.50;99.90;;;;;;5076379;28;20451;-86
2022/06/16 04:57:23;;;;;;;4.20;3.10;;;20.50;99.90;;;;;;5076279;28;20175;-87
2022/06/16 04:59:49;;;;;;;4.73;3.43;;;20.60;99.90;;;;;;5074860;28;20183;-87
2022/06/16 05:02:15;;;;;;;7.67;3.17;;;20.70;99.90;;;;;;5075202;28;20414;-87
2022/06/16 05:04:42;;;;;;;6.23;3.10;;;20.80;99.90;;;;;;5076020;28;20435;-87
2022/06/16 05:07:08;;;;;;;6.30;3.30;;;20.90;99.90;;;;;;5075184;28;20187;-86
2022/06/16 05:09:34;;;;;;;5.27;3.40;;;21.00;99.90;;;;;;5076239;28;20426;-87
2022/06/16 05:12:00;;;;;;;10.80;3.57;;;21.10;99.90;;;;;;5077210;28;20218;-86
2022/06/16 05:14:25;;;;;;;9.40;3.60;;;21.20;99.90;;;;;;5080539;28;20515;-87
2022/06/16 05:16:51;;;;;;;4.30;3.13;;;21.30;99.90;;;;;;5075655;28;20180;-84
2022/06/16 05:19:17;;;;;;;7.10;3.73;;;21.50;99.90;;;;;;5075631;28;20712;-87
2022/06/16 05:21:43;;;;;;;4.60;3.03;;;21.60;99.90;;;;;;5076380;28;20176;-87
2022/06/16 05:24:09;;;;;;;6.50;3.30;;;21.80;99.90;;;;;;5075771;28;20169;-87
2022/06/16 05:26:34;;;;;;;5.00;3.13;;;21.90;99.90;;;;;;5080599;28;20522;-87
2022/06/16 05:29:00;;;;;;;5.87;3.30;;;22.10;99.90;;;;;;5082136;28;20173;-88
2022/06/16 05:31:26;;;;;;;6.00;3.30;;;22.10;99.90;;;;;;5074023;28;20299;-87
2022/06/16 05:33:51;;;;;;;4.23;2.80;;;22.30;99.90;;;;;;5074672;28;20184;-86
2022/06/16 05:36:18;;;;;;;6.40;3.20;;;22.40;99.90;;;;;;5071270;28;20186;-86
2022/06/16 05:38:44;;;;;;;6.50;3.10;;;22.40;99.90;;;;;;5066844;28;20644;-85
2022/06/16 05:41:14;;;;;;;12.50;2.80;;;22.60;99.90;;;;;;5091189;28;20421;-86
2022/06/16 05:43:40;;;;;;;5.70;3.17;;;22.60;99.90;;;;;;5074180;28;20497;-86
2022/06/16 05:46:17;;;;;;;4.63;2.90;;;22.70;99.90;;;;;;5074066;28;20433;-86
2022/06/16 05:48:43;;;;;;;8.17;3.10;;;22.80;99.90;;;;;;5075025;28;20424;-86
2022/06/16 05:51:11;;;;;;;4.10;2.63;;;22.90;99.90;;;;;;5085579;28;20409;-86
2022/06/16 05:53:38;;;;;;;6.40;3.30;;;23.10;99.90;;;;;;5077487;28;20181;-80
2022/06/16 05:56:04;;;;;;;5.77;2.73;;;23.20;99.90;;;;;;5072984;28;20460;-80
2022/06/16 05:58:30;;;;;;;6.20;2.80;;;23.40;99.90;;;;;;5073209;28;20460;-81
2022/06/16 06:00:56;;;;;;;3.80;3.00;;;23.50;99.90;;;;;;5060940;28;20421;-79
2022/06/16 06:03:25;;;;;;;4.67;2.60;;;23.60;99.90;;;;;;5061451;28;20410;-80
2022/06/16 06:19:25;;;;;;;7.23;2.93;;;24.00;99.90;;;;;;5074540;28;20472;-85
2022/06/16 06:25:18;;;;;;;6.40;2.80;;;23.90;99.90;;;;;;5075417;28;20455;-85
2022/06/16 06:31:06;;;;;;;9.50;2.97;;;24.00;99.90;;;;;;5074570;28;20458;-85
2022/06/16 06:34:01;;;;;;;7.73;3.00;;;24.10;99.90;;;;;;5073491;28;20821;-86
2022/06/16 06:39:49;;;;;;;5.50;2.77;;;24.10;99.90;;;;;;5082372;28;20770;-79
2022/06/16 06:48:58;;;;;;;7.00;3.17;;;23.90;99.90;;;;;;5054402;28;20422;-80
2022/06/16 06:58:10;;;;;;;10.17;3.30;;;24.20;99.90;;;;;;5054209;28;20806;-85
2022/06/16 07:03:58;;;;;;;10.67;3.23;;;24.70;99.90;;;;;;5063979;28;21136;-84
2022/06/16 07:06:43;;;;;;;3.67;2.60;;;25.00;99.90;;;;;;5074002;28;20756;-84
2022/06/16 07:09:14;;;;;;;3.67;3.10;;;25.10;99.90;;;;;;5074236;28;20495;-80
2022/06/16 07:12:18;;;;;;;9.33;2.90;;;25.20;99.90;;;;;;5072096;28;20748;-80
2022/06/16 07:18:06;;;;;;;9.13;3.17;;;25.00;99.90;;;;;;5065130;28;20415;-82
2022/06/16 07:23:54;;;;;;;3.60;3.03;;;25.20;99.90;;;;;;5085677;28;20495;-85
2022/06/16 07:26:20;;;;;;;5.47;3.07;;;25.20;99.90;;;;;;5083287;28;20519;-86
2022/06/16 07:28:47;;;;;;;5.53;3.00;;;25.20;99.90;;;;;;5072855;28;20277;-75
2022/06/16 07:31:13;;;;;;;36.37;3.57;;;25.20;99.90;;;;;;5072568;28;20420;-74
2022/06/16 07:33:39;;;;;;;7.30;3.20;;;25.20;99.90;;;;;;5072177;28;20451;-75
2022/06/16 07:36:05;;;;;;;4.77;2.83;;;25.30;99.90;;;;;;5072247;28;20458;-74
2022/06/16 07:38:30;;;;;;;5.13;3.47;;;25.30;99.90;;;;;;5066241;28;20174;-74
2022/06/16 07:43:42;;;;;;;7.00;3.00;;;25.30;99.90;;;;;;5049857;28;20255;-71
2022/06/16 07:46:08;;;;;;;8.77;3.40;;;25.40;99.90;;;;;;5056540;28;20525;-71
2022/06/16 07:48:34;;;;;;;4.90;3.10;;;25.30;99.90;;;;;;5055098;28;20206;-71
2022/06/16 07:50:59;;;;;;;7.43;3.23;;;25.40;99.90;;;;;;5050664;28;20185;-71
2022/06/16 07:53:25;;;;;;;4.33;2.90;;;25.50;99.90;;;;;;5054478;28;20437;-71
2022/06/16 07:55:50;;;;;;;4.90;3.47;;;25.50;99.90;;;;;;5053783;28;20618;-72
2022/06/16 07:58:16;;;;;;;8.60;2.97;;;25.50;99.90;;;;;;5054430;28;20186;-73
2022/06/16 08:00:42;;;;;;;4.47;3.30;;;25.50;99.90;;;;;;5054262;28;20759;-74
2022/06/16 08:03:08;;;;;;;6.40;2.90;;;25.50;99.90;;;;;;5049310;28;20192;-74
2022/06/16 08:05:33;;;;;;;8.50;3.40;;;25.60;99.90;;;;;;5057075;28;20212;-74
2022/06/16 08:08:00;;;;;;;6.37;3.23;;;25.70;99.90;;;;;;5059265;28;20198;-74
2022/06/16 08:10:35;;;;;;;7.67;2.70;;;25.80;99.90;;;;;;5067041;28;20182;-74
2022/06/16 08:13:00;;;;;;;7.20;3.30;;;25.90;99.90;;;;;;5069229;28;20438;-74
2022/06/16 08:15:49;;;;;;;12.60;3.80;;;25.80;99.90;;;;;;5055042;28;20459;-74
2022/06/16 08:18:21;;;;;;;4.43;3.10;;;25.80;99.90;;;;;;5065174;28;20186;-71
2022/06/16 08:20:47;;;;;;;4.77;3.50;;;25.80;99.90;;;;;;5055178;28;20444;-71
2022/06/16 08:23:13;;;;;;;6.43;3.13;;;25.80;99.90;;;;;;5075402;28;20418;-74
2022/06/16 08:25:42;;;;;;;6.57;3.20;;;25.90;99.90;;;;;;5077714;28;20587;-90
2022/06/16 08:28:09;;;;;;;4.00;2.93;;;26.00;99.90;;;;;;5075600;28;20465;-88
2022/06/16 08:30:35;;;;;;;9.27;2.97;;;26.00;99.90;;;;;;5076728;28;20423;-88
2022/06/16 08:33:02;;;;;;;3.87;3.00;;;26.10;99.90;;;;;;5076155;28;20487;-85
2022/06/16 08:35:28;;;;;;;5.93;2.90;;;26.20;99.90;;;;;;5076023;28;20461;-84
2022/06/16 08:37:53;;;;;;;9.23;3.17;;;26.30;99.90;;;;;;5070334;28;20502;-85
2022/06/16 08:40:20;;;;;;;7.03;3.10;;;26.30;99.90;;;;;;5074995;28;20514;-84
2022/06/16 08:43:03;;;;;;;3.00;2.70;;;26.40;99.90;;;;;;5075422;28;20595;-84
2022/06/16 08:45:34;;;;;;;3.90;2.67;;;26.50;99.90;;;;;;5079423;28;20942;-83
2022/06/16 08:48:11;;;;;;;8.10;2.80;;;26.50;99.90;;;;;;5074624;28;20838;-83
2022/06/16 08:51:12;;;;;;;3.07;2.60;;;26.50;99.90;;;;;;5074292;28;20789;-84
2022/06/16 08:54:16;;;;;;;4.50;2.70;;;26.60;99.90;;;;;;5013719;28;20426;-81
2022/06/16 08:56:54;;;;;;;6.60;2.73;;;26.70;99.90;;;;;;5013738;28;20490;-80
2022/06/16 08:59:36;;;;;;;12.10;3.20;;;26.80;99.90;;;;;;5013586;28;20474;-81
2022/06/16 09:02:10;;;;;;;5.07;2.83;;;26.80;99.90;;;;;;5010054;28;20428;-81
2022/06/16 09:04:45;;;;;;;5.80;2.83;;;26.80;99.90;;;;;;4995408;28;20868;-81
2022/06/16 09:07:39;;;;;;;5.13;2.70;;;26.90;99.90;;;;;;5013227;28;20435;-81
2022/06/16 09:10:23;;;;;;;2.93;2.60;;;27.00;99.90;;;;;;5014032;28;20434;-87
2022/06/16 09:12:57;;;;;;;4.63;2.93;;;27.20;99.90;;;;;;5013942;28;20484;-88
2022/06/16 09:15:33;;;;;;;7.73;2.87;;;27.20;99.90;;;;;;5014159;28;20470;-88
2022/06/16 09:18:13;;;;;;;13.53;2.70;;;27.30;99.90;;;;;;4997948;28;20474;-87
2022/06/16 09:21:01;;;;;;;7.53;2.63;;;27.30;99.90;;;;;;5012800;28;20451;-81
2022/06/16 09:24:08;;;;;;;7.00;3.20;;;27.40;99.90;;;;;;5006586;28;20448;-81
2022/06/16 09:26:55;;;;;;;4.40;2.57;;;27.50;99.90;;;;;;4955402;29;20913;-89
2022/06/16 09:29:33;;;;;;;7.67;2.53;;;27.50;99.90;;;;;;4939590;29;20471;-90
2022/06/16 09:32:08;;;;;;;7.70;3.20;;;27.60;99.90;;;;;;4956216;28;20430;-83
2022/06/16 09:34:58;;;;;;;7.80;3.43;;;27.60;99.90;;;;;;5016140;28;20459;-83
2022/06/16 09:37:49;;;;;;;3.30;2.60;;;27.60;99.90;;;;;;5015801;28;20803;-83
2022/06/16 09:40:23;;;;;;;5.73;3.00;;;27.70;99.90;;;;;;5032562;28;20954;-89
2022/06/16 09:42:58;;;;;;;14.97;3.20;;;27.70;99.90;;;;;;5016651;28;20432;-88
2022/06/16 09:45:28;;;;;;;3.40;2.60;;;27.70;99.90;;;;;;5030372;28;20505;-89
2022/06/16 09:48:07;;;;;;;3.60;2.30;;;27.80;99.90;;;;;;5016882;28;20412;-89
2022/06/16 09:50:59;;;;;;;6.50;2.87;;;27.90;99.90;;;;;;5032416;28;20431;-90
2022/06/16 09:53:58;;;;;;;5.37;2.63;;;27.80;99.90;;;;;;5021401;28;20436;-85
2022/06/16 09:56:33;;;;;;;9.97;2.27;;;27.80;99.90;;;;;;5036516;28;20503;-89
2022/06/16 09:59:24;;;;;;;6.43;2.77;;;27.90;99.90;;;;;;5016984;28;20472;-96
2022/06/16 10:02:06;;;;;;;6.10;2.90;;;28.10;99.90;;;;;;5017794;28;20813;-95
2022/06/16 10:04:32;;;;;;;9.23;2.77;;;28.20;99.90;;;;;;5074523;28;20457;-90
2022/06/16 10:07:21;;;;;;;5.77;2.57;;;28.30;99.90;;;;;;5073350;28;20428;-84
2022/06/16 10:09:55;;;;;;;4.90;2.73;;;28.30;99.90;;;;;;5077528;28;20419;-93
2022/06/16 10:12:46;;;;;;;3.70;2.50;;;28.30;99.90;;;;;;5089995;28;20442;-85
2022/06/16 10:15:45;;;;;;;8.03;2.57;;;28.40;99.90;;;;;;5074076;28;20466;-83
2022/06/16 10:18:10;;;;;;;3.43;2.77;;;28.50;99.90;;;;;;5086076;28;20427;-86
2022/06/16 10:20:38;;;;;;;5.03;2.67;;;28.60;99.90;;;;;;5073019;28;20530;-86
2022/06/16 10:23:24;;;;;;;8.43;2.93;;;28.70;99.90;;;;;;5070249;28;20167;-88
2022/06/16 10:25:56;;;;;;;4.40;2.80;;;28.80;99.90;;;;;;5073004;28;20426;-92
2022/06/16 10:28:27;;;;;;;4.30;2.87;;;28.90;99.90;;;;;;5073502;28;20420;-84
2022/06/16 10:30:52;;;;;;;9.77;3.20;;;29.00;99.90;;;;;;5087987;28;20847;-94
2022/06/16 10:33:25;;;;;;;6.03;2.60;;;29.10;99.90;;;;;;5066981;28;20507;-88
2022/06/16 10:36:16;;;;;;;7.30;2.87;;;29.30;99.90;;;;;;5079461;28;20190;-96
2022/06/16 10:38:44;;;;;;;6.80;2.50;;;29.40;99.90;;;;;;5074182;28;20743;-96
2022/06/16 10:41:29;;;;;;;6.40;2.93;;;29.40;99.90;;;;;;5074297;28;20443;-93
2022/06/16 10:43:58;;;;;;;7.57;3.30;;;29.40;99.90;;;;;;5074364;28;20415;-90
2022/06/16 10:46:31;;;;;;;9.43;2.97;;;29.40;99.90;;;;;;5072934;28;20941;-89
2022/06/16 10:49:00;;;;;;;18.83;6.43;;;29.50;99.90;;;;;;5073164;28;21011;-92
2022/06/16 10:51:29;;;;;;;9.00;4.50;;;29.50;99.90;;;;;;5073729;28;20449;-86
2022/06/16 10:54:20;;;;;;;11.03;3.30;;;29.60;99.90;;;;;;5073725;28;20855;-86
2022/06/16 10:56:49;;;;;;;8.00;3.20;;;29.70;99.90;;;;;;5073953;28;20457;-86
2022/06/16 10:59:14;;;;;;;16.67;3.00;;;29.70;99.90;;;;;;5072382;28;20473;-86
2022/06/16 11:01:47;;;;;;;5.53;3.00;;;29.90;99.90;;;;;;5077354;28;20458;-91
2022/06/16 11:04:35;;;;;;;4.07;2.70;;;30.00;99.90;;;;;;5071089;28;20209;-90
2022/06/16 11:07:01;;;;;;;6.00;3.20;;;30.00;99.90;;;;;;5073203;28;20424;-91
2022/06/16 11:09:31;;;;;;;7.70;2.70;;;30.00;99.90;;;;;;5072329;28;20484;-91
2022/06/16 11:11:59;;;;;;;3.13;2.67;;;29.90;99.90;;;;;;5072678;28;20438;-91
2022/06/16 11:15:02;;;;;;;9.67;2.93;;;30.00;99.90;;;;;;5072652;28;20493;-91
2022/06/16 11:17:30;;;;;;;13.43;3.10;;;30.00;99.90;;;;;;5070118;28;20418;-90
2022/06/16 11:20:04;;;;;;;15.43;3.37;;;30.10;99.90;;;;;;5075091;28;20456;-90
2022/06/16 11:22:38;;;;;;;8.80;3.40;;;30.20;99.90;;;;;;5083250;28;20405;-88
2022/06/16 11:25:05;;;;;;;7.67;2.70;;;30.30;99.90;;;;;;5068052;28;20935;-88
2022/06/16 11:27:40;;;;;;;4.73;3.03;;;30.40;99.90;;;;;;5070668;28;20433;-95
2022/06/16 11:30:28;;;;;;;4.40;3.40;;;30.40;99.90;;;;;;5063104;28;20422;-90
2022/06/16 11:32:54;;;;;;;13.97;3.30;;;30.40;99.90;;;;;;5073368;28;20429;-90
2022/06/16 11:35:25;;;;;;;7.80;3.70;;;29.90;99.90;;;;;;5071150;28;20462;-91
2022/06/16 11:38:05;;;;;;;5.00;2.73;;;29.90;99.90;;;;;;5053302;28;20292;-90
2022/06/16 11:41:02;;;;;;;4.27;3.03;;;30.00;99.90;;;;;;5065448;28;20790;-90
2022/06/16 11:43:59;;;;;;;7.40;2.93;;;30.30;99.90;;;;;;4999622;28;20846;-90
2022/06/16 11:46:38;;;;;;;3.53;2.70;;;30.40;99.90;;;;;;4994180;28;20426;-91
2022/06/16 11:49:39;;;;;;;5.43;2.97;;;30.40;99.90;;;;;;5016041;28;20447;-91
2022/06/16 11:52:19;;;;;;;3.10;2.60;;;30.60;99.90;;;;;;4972242;28;20431;-90
2022/06/16 11:54:56;;;;;;;3.37;2.60;;;30.70;99.90;;;;;;4972541;28;20821;-88
2022/06/16 11:57:34;;;;;;;3.80;3.20;;;30.80;99.90;;;;;;4959604;28;20433;-85
2022/06/16 12:00:25;;;;;;;3.20;2.90;;;30.60;99.90;;;;;;4956467;28;20527;-88
2022/06/16 12:03:08;;;;;;;6.23;3.10;;;30.50;99.90;;;;;;4971658;28;20416;-91
2022/06/16 12:06:11;;;;;;;6.07;3.40;;;30.60;99.90;;;;;;4975807;28;20453;-96
2022/06/16 12:09:04;;;;;;;6.53;3.80;;;30.30;99.90;;;;;;4956839;28;20455;-92
2022/06/16 12:11:54;;;;;;;3.17;2.87;;;30.20;99.90;;;;;;4952008;28;20437;-89
2022/06/16 12:14:55;;;;;;;4.77;3.10;;;30.30;99.90;;;;;;4972693;28;20517;-89
2022/06/16 12:17:36;;;;;;;2.97;2.77;;;30.50;99.90;;;;;;4940427;29;20469;-89
2022/06/16 12:20:27;;;;;;;4.57;2.43;;;30.70;99.90;;;;;;4947853;28;20468;-89
2022/06/16 12:23:07;;;;;;;4.10;2.50;;;30.80;99.90;;;;;;4968494;28;20529;-83
2022/06/16 12:25:39;;;;;;;3.93;3.00;;;31.00;99.90;;;;;;4977590;28;20546;-89
2022/06/16 12:28:20;;;;;;;4.40;2.50;;;30.90;99.90;;;;;;4988015;28;20444;-87
2022/06/16 12:31:03;;;;;;;5.20;2.70;;;30.80;99.90;;;;;;4999945;28;20523;-88
2022/06/16 12:33:58;;;;;;;10.43;2.50;;;30.60;99.90;;;;;;4987669;28;20439;-88
2022/06/16 12:36:29;;;;;;;4.60;2.53;;;30.70;99.90;;;;;;4985775;28;20464;-89
2022/06/16 12:39:00;;;;;;;4.23;2.73;;;30.60;99.90;;;;;;4985433;28;20447;-90
2022/06/16 12:41:38;;;;;;;4.93;2.60;;;30.60;99.90;;;;;;4993921;28;20425;-88
2022/06/16 12:44:10;;;;;;;2.40;2.03;;;30.80;99.90;;;;;;4995702;28;20462;-90
2022/06/16 12:46:45;;;;;;;2.50;2.30;;;30.90;99.90;;;;;;4997562;28;20428;-87
2022/06/16 12:49:22;;;;;;;4.30;2.47;;;31.00;99.90;;;;;;4993598;28;20487;-90
2022/06/16 12:51:56;;;;;;;6.17;2.10;;;31.20;99.90;;;;;;5002348;28;20431;-91
2022/06/16 12:54:31;;;;;;;2.53;2.33;;;31.30;99.90;;;;;;5029277;28;20518;-90
2022/06/16 12:57:10;;;;;;;2.30;2.10;;;31.40;99.90;;;;;;5075616;28;21028;-87
2022/06/16 12:59:42;;;;;;;2.40;2.20;;;31.50;99.90;;;;;;5075215;28;20439;-87
2022/06/16 13:02:14;;;;;;;3.27;2.20;;;31.40;99.90;;;;;;5085577;28;20413;-87
2022/06/16 13:04:40;;;;;;;3.53;2.13;;;31.50;99.90;;;;;;5075482;28;20420;-86
2022/06/16 13:07:12;;;;;;;3.07;1.67;;;31.60;99.90;;;;;;5075248;28;20482;-88
2022/06/16 13:09:40;;;;;;;1.80;1.70;;;31.50;99.90;;;;;;5075191;28;20460;-91
2022/06/16 13:12:17;;;;;;;2.20;2.00;;;31.40;99.90;;;;;;5075188;28;20516;-87
2022/06/16 13:15:07;;;;;;;2.83;1.90;;;31.60;99.90;;;;;;5075305;28;20457;-89
2022/06/16 13:17:38;;;;;;;6.00;1.90;;;31.70;99.90;;;;;;5069926;28;20424;-90
2022/06/16 13:20:11;;;;;;;3.37;1.83;;;31.80;99.90;;;;;;5074646;28;20520;-90
2022/06/16 13:22:41;;;;;;;1.57;1.40;;;31.90;99.90;;;;;;5071799;28;20429;-93
2022/06/16 13:25:10;;;;;;;2.80;1.83;;;32.10;99.90;;;;;;5077341;28;20460;-93
2022/06/16 13:27:41;;;;;;;4.23;1.80;;;32.30;99.90;;;;;;5075242;28;20416;-92
2022/06/16 13:30:09;;;;;;;1.67;1.50;;;32.40;99.90;;;;;;5074567;28;20426;-89
2022/06/16 13:32:47;;;;;;;2.03;1.73;;;32.40;99.90;;;;;;5074864;28;20440;-89
2022/06/16 13:35:12;;;;;;;3.70;1.50;;;32.40;99.90;;;;;;5085109;28;20488;-89
2022/06/16 13:38:12;;;;;;;3.20;1.50;;;32.50;99.90;;;;;;5067184;28;20464;-86
2022/06/16 13:40:44;;;;;;;2.80;1.70;;;32.40;99.90;;;;;;5059504;28;20708;-90
2022/06/16 13:43:19;;;;;;;3.80;1.50;;;32.30;99.90;;;;;;5067607;28;21015;-89
2022/06/16 13:46:12;;;;;;;3.47;2.33;;;32.40;99.90;;;;;;5074822;28;20410;-85
2022/06/16 13:49:05;;;;;;;2.63;1.80;;;32.40;99.90;;;;;;5065330;28;20423;-89
2022/06/16 13:52:06;;;;;;;1.80;1.70;;;32.40;99.90;;;;;;5055923;28;20426;-87
2022/06/16 13:55:20;;;;;;;2.97;1.50;;;32.50;99.90;;;;;;5060085;28;20790;-88
2022/06/16 14:05:24;;;;;;;6.27;1.70;;;32.60;99.90;;;;;;5032657;28;20426;-84
2022/06/16 14:08:36;;;;;;;3.53;1.37;;;32.70;99.90;;;;;;5009777;28;20806;-86
2022/06/16 14:11:26;;;;;;;4.70;1.33;;;32.40;99.90;;;;;;5024013;28;20424;-86
2022/06/16 14:14:42;;;;;;;1.93;1.27;;;32.40;99.90;;;;;;5017629;28;20569;-86
2022/06/16 14:20:35;;;;;;;3.17;1.43;;;32.30;99.90;;;;;;5030925;28;20528;-86
2022/06/16 14:23:27;;;;;;;3.77;1.40;;;32.30;99.90;;;;;;5014130;28;20916;-81
2022/06/16 14:26:08;;;;;;;1.93;1.30;;;32.20;99.90;;;;;;5009167;28;20418;-92
2022/06/16 14:35:27;;;;;;;2.40;1.40;;;32.30;99.90;;;;;;5060098;28;20456;-89
2022/06/16 14:38:00;;;;;;;2.97;1.07;;;32.50;99.90;;;;;;5057410;28;20487;-91